sensor_id;sensor_type;location;lat;lon;timestamp;temperature;humidity
49829;DHT22;35723;51.194;5.112;2022-07-01T00:02:10;15.90;99.90
49829;DHT22;35723;51.194;5.112;2022-07-01T00:04:36;15.90;99.90
49829;DHT22;35723;51.194;5.112;2022-07-01T00:07:02;15.90;99.90
49829;DHT22;35723;51.194;5.112;2022-07-01T00:09:27;15.70;99.90
49829;DHT22;35723;51.194;5.112;2022-07-01T00:11:53;15.90;99.90
49829;DHT22;35723;51.194;5.112;2022-07-01T00:14:19;15.90;99.90
49829;DHT22;35723;51.194;5.112;2022-07-01T00:16:45;16.00;99.90
49829;DHT22;35723;51.194;5.112;2022-07-01T00:19:10;16.00;99.90
49829;DHT22;35723;51.194;5.112;2022-07-01T00:21:36;15.70;99.90
49829;DHT22;35723;51.194;5.112;2022-07-01T00:24:02;15.70;99.90
49829;DHT22;35723;51.194;5.112;2022-07-01T00:26:27;15.60;99.90
49829;DHT22;35723;51.194;5.112;2022-07-01T00:28:53;15.70;99.90
49829;DHT22;35723;51.194;5.112;2022-07-01T00:31:18;15.70;99.90
49829;DHT22;35723;51.194;5.112;2022-07-01T00:33:44;15.90;99.90
49829;DHT22;35723;51.194;5.112;2022-07-01T00:36:10;15.70;99.90
49829;DHT22;35723;51.194;5.112;2022-07-01T00:38:35;15.80;99.90
49829;DHT22;35723;51.194;5.112;2022-07-01T00:41:01;16.00;99.90
49829;DHT22;35723;51.194;5.112;2022-07-01T00:43:27;15.60;99.90
49829;DHT22;35723;51.194;5.112;2022-07-01T00:45:53;15.80;99.90
49829;DHT22;35723;51.194;5.112;2022-07-01T00:48:20;15.70;99.90
49829;DHT22;35723;51.194;5.112;2022-07-01T00:50:47;15.60;99.90
49829;DHT22;35723;51.194;5.112;2022-07-01T00:53:14;15.50;99.90
49829;DHT22;35723;51.194;5.112;2022-07-01T00:55:41;15.70;99.90
49829;DHT22;35723;51.194;5.112;2022-07-01T00:58:08;15.60;99.90
49829;DHT22;35723;51.194;5.112;2022-07-01T01:00:35;15.50;99.90
49829;DHT22;35723;51.194;5.112;2022-07-01T01:03:01;15.60;99.90
49829;DHT22;35723;51.194;5.112;2022-07-01T01:05:27;15.60;99.90
49829;DHT22;35723;51.194;5.112;2022-07-01T01:07:52;15.30;99.90
49829;DHT22;35723;51.194;5.112;2022-07-01T01:10:19;15.20;99.90
49829;DHT22;35723;51.194;5.112;2022-07-01T01:12:45;15.40;99.90
49829;DHT22;35723;51.194;5.112;2022-07-01T01:15:17;15.40;99.90
49829;DHT22;35723;51.194;5.112;2022-07-01T01:17:43;15.50;99.90
49829;DHT22;35723;51.194;5.112;2022-07-01T01:20:14;15.30;99.90
49829;DHT22;35723;51.194;5.112;2022-07-01T01:22:40;15.20;99.90
49829;DHT22;35723;51.194;5.112;2022-07-01T01:25:05;15.30;99.90
49829;DHT22;35723;51.194;5.112;2022-07-01T01:27:31;15.20;99.90
49829;DHT22;35723;51.194;5.112;2022-07-01T01:29:57;15.20;99.90
49829;DHT22;35723;51.194;5.112;2022-07-01T01:32:22;15.40;99.90
49829;DHT22;35723;51.194;5.112;2022-07-01T01:34:48;15.40;99.90
49829;DHT22;35723;51.194;5.112;2022-07-01T01:37:14;15.40;99.90
49829;DHT22;35723;51.194;5.112;2022-07-01T01:39:39;15.30;99.90
49829;DHT22;35723;51.194;5.112;2022-07-01T01:42:05;15.00;99.90
49829;DHT22;35723;51.194;5.112;2022-07-01T01:44:32;14.90;99.90
49829;DHT22;35723;51.194;5.112;2022-07-01T01:46:57;14.80;99.90
49829;DHT22;35723;51.194;5.112;2022-07-01T01:49:23;14.90;99.90
49829;DHT22;35723;51.194;5.112;2022-07-01T01:51:49;15.20;99.90
49829;DHT22;35723;51.194;5.112;2022-07-01T01:54:15;15.30;99.90
49829;DHT22;35723;51.194;5.112;2022-07-01T01:56:40;15.40;99.90
49829;DHT22;35723;51.194;5.112;2022-07-01T01:59:06;15.40;99.90
49829;DHT22;35723;51.194;5.112;2022-07-01T02:01:32;15.10;99.90
49829;DHT22;35723;51.194;5.112;2022-07-01T02:03:58;15.10;99.90
49829;DHT22;35723;51.194;5.112;2022-07-01T02:06:25;15.20;99.90
49829;DHT22;35723;51.194;5.112;2022-07-01T02:08:51;15.00;99.90
49829;DHT22;35723;51.194;5.112;2022-07-01T02:11:16;15.00;99.90
49829;DHT22;35723;51.194;5.112;2022-07-01T02:13:42;15.00;99.90
49829;DHT22;35723;51.194;5.112;2022-07-01T02:16:09;15.10;99.90
49829;DHT22;35723;51.194;5.112;2022-07-01T02:18:35;15.10;99.90
49829;DHT22;35723;51.194;5.112;2022-07-01T02:21:01;15.00;99.90
49829;DHT22;35723;51.194;5.112;2022-07-01T02:23:26;15.00;99.90
49829;DHT22;35723;51.194;5.112;2022-07-01T02:25:52;15.20;99.90
49829;DHT22;35723;51.194;5.112;2022-07-01T02:28:18;15.20;99.90
49829;DHT22;35723;51.194;5.112;2022-07-01T02:30:44;15.10;99.90
49829;DHT22;35723;51.194;5.112;2022-07-01T02:33:10;15.10;99.90
49829;DHT22;35723;51.194;5.112;2022-07-01T02:35:38;15.20;99.90
49829;DHT22;35723;51.194;5.112;2022-07-01T02:38:05;15.20;99.90
49829;DHT22;35723;51.194;5.112;2022-07-01T02:40:31;15.20;99.90
49829;DHT22;35723;51.194;5.112;2022-07-01T02:42:56;15.10;99.90
49829;DHT22;35723;51.194;5.112;2022-07-01T02:45:22;15.10;99.90
49829;DHT22;35723;51.194;5.112;2022-07-01T02:47:50;15.10;99.90
49829;DHT22;35723;51.194;5.112;2022-07-01T02:50:18;15.20;99.90
49829;DHT22;35723;51.194;5.112;2022-07-01T02:52:43;15.20;99.90
49829;DHT22;35723;51.194;5.112;2022-07-01T02:55:11;15.10;99.90
49829;DHT22;35723;51.194;5.112;2022-07-01T02:57:37;15.00;99.90
49829;DHT22;35723;51.194;5.112;2022-07-01T03:00:04;15.10;99.90
49829;DHT22;35723;51.194;5.112;2022-07-01T03:02:32;15.20;99.90
49829;DHT22;35723;51.194;5.112;2022-07-01T03:04:59;15.00;99.90
49829;DHT22;35723;51.194;5.112;2022-07-01T03:07:24;15.10;99.90
49829;DHT22;35723;51.194;5.112;2022-07-01T03:09:50;15.10;99.90
49829;DHT22;35723;51.194;5.112;2022-07-01T03:12:16;15.10;99.90
49829;DHT22;35723;51.194;5.112;2022-07-01T03:17:25;15.40;99.90
49829;DHT22;35723;51.194;5.112;2022-07-01T03:19:52;15.20;99.90
49829;DHT22;35723;51.194;5.112;2022-07-01T03:22:21;15.20;99.90
49829;DHT22;35723;51.194;5.112;2022-07-01T03:24:48;15.20;99.90
49829;DHT22;35723;51.194;5.112;2022-07-01T03:27:15;15.30;99.90
49829;DHT22;35723;51.194;5.112;2022-07-01T03:29:41;15.20;99.90
49829;DHT22;35723;51.194;5.112;2022-07-01T03:32:08;15.30;99.90
49829;DHT22;35723;51.194;5.112;2022-07-01T03:34:36;15.20;99.90
49829;DHT22;35723;51.194;5.112;2022-07-01T03:37:03;15.30;99.90
49829;DHT22;35723;51.194;5.112;2022-07-01T03:39:28;15.20;99.90
49829;DHT22;35723;51.194;5.112;2022-07-01T03:41:54;15.10;99.90
49829;DHT22;35723;51.194;5.112;2022-07-01T03:44:19;15.20;99.90
49829;DHT22;35723;51.194;5.112;2022-07-01T03:46:45;15.20;99.90
49829;DHT22;35723;51.194;5.112;2022-07-01T03:49:11;15.20;99.90
49829;DHT22;35723;51.194;5.112;2022-07-01T03:51:37;15.20;99.90
49829;DHT22;35723;51.194;5.112;2022-07-01T03:54:03;15.10;99.90
49829;DHT22;35723;51.194;5.112;2022-07-01T03:56:47;15.10;99.90
49829;DHT22;35723;51.194;5.112;2022-07-01T03:59:13;15.00;99.90
49829;DHT22;35723;51.194;5.112;2022-07-01T04:01:38;15.10;99.90
49829;DHT22;35723;51.194;5.112;2022-07-01T04:04:04;15.20;99.90
49829;DHT22;35723;51.194;5.112;2022-07-01T04:06:30;15.00;99.90
49829;DHT22;35723;51.194;5.112;2022-07-01T04:08:56;15.00;99.90
49829;DHT22;35723;51.194;5.112;2022-07-01T04:11:22;15.10;99.90
49829;DHT22;35723;51.194;5.112;2022-07-01T04:13:47;15.10;99.90
49829;DHT22;35723;51.194;5.112;2022-07-01T04:16:17;15.00;99.90
49829;DHT22;35723;51.194;5.112;2022-07-01T04:18:43;15.20;99.90
49829;DHT22;35723;51.194;5.112;2022-07-01T04:21:09;15.10;99.90
49829;DHT22;35723;51.194;5.112;2022-07-01T04:23:53;14.90;99.90
49829;DHT22;35723;51.194;5.112;2022-07-01T04:26:19;15.10;99.90
49829;DHT22;35723;51.194;5.112;2022-07-01T04:28:45;15.10;99.90
49829;DHT22;35723;51.194;5.112;2022-07-01T04:31:10;15.20;99.90
49829;DHT22;35723;51.194;5.112;2022-07-01T04:33:36;15.00;99.90
49829;DHT22;35723;51.194;5.112;2022-07-01T04:36:02;14.90;99.90
49829;DHT22;35723;51.194;5.112;2022-07-01T04:38:27;14.80;99.90
49829;DHT22;35723;51.194;5.112;2022-07-01T04:40:53;14.90;99.90
49829;DHT22;35723;51.194;5.112;2022-07-01T04:43:37;15.00;99.90
49829;DHT22;35723;51.194;5.112;2022-07-01T04:46:03;15.20;99.90
49829;DHT22;35723;51.194;5.112;2022-07-01T04:48:28;15.20;99.90
49829;DHT22;35723;51.194;5.112;2022-07-01T04:50:54;15.00;99.90
49829;DHT22;35723;51.194;5.112;2022-07-01T04:53:19;15.00;99.90
49829;DHT22;35723;51.194;5.112;2022-07-01T04:55:45;15.20;99.90
49829;DHT22;35723;51.194;5.112;2022-07-01T04:58:12;15.30;99.90
49829;DHT22;35723;51.194;5.112;2022-07-01T05:00:38;15.50;99.90
49829;DHT22;35723;51.194;5.112;2022-07-01T05:03:04;15.60;99.90
49829;DHT22;35723;51.194;5.112;2022-07-01T05:05:29;15.50;99.90
49829;DHT22;35723;51.194;5.112;2022-07-01T05:07:55;15.50;99.90
49829;DHT22;35723;51.194;5.112;2022-07-01T05:10:21;15.60;99.90
49829;DHT22;35723;51.194;5.112;2022-07-01T05:12:46;15.60;99.90
49829;DHT22;35723;51.194;5.112;2022-07-01T05:15:12;15.60;99.90
49829;DHT22;35723;51.194;5.112;2022-07-01T05:17:37;15.60;99.90
49829;DHT22;35723;51.194;5.112;2022-07-01T05:20:22;15.60;99.90
49829;DHT22;35723;51.194;5.112;2022-07-01T05:23:06;15.70;99.90
49829;DHT22;35723;51.194;5.112;2022-07-01T05:25:31;15.60;99.90
49829;DHT22;35723;51.194;5.112;2022-07-01T05:27:57;15.50;99.90
49829;DHT22;35723;51.194;5.112;2022-07-01T05:30:23;15.50;99.90
49829;DHT22;35723;51.194;5.112;2022-07-01T05:32:48;15.50;99.90
49829;DHT22;35723;51.194;5.112;2022-07-01T05:35:14;15.40;99.90
49829;DHT22;35723;51.194;5.112;2022-07-01T05:37:40;15.40;99.90
49829;DHT22;35723;51.194;5.112;2022-07-01T05:40:07;15.30;99.90
49829;DHT22;35723;51.194;5.112;2022-07-01T05:42:33;15.40;99.90
49829;DHT22;35723;51.194;5.112;2022-07-01T05:44:58;15.40;99.90
49829;DHT22;35723;51.194;5.112;2022-07-01T05:47:24;15.30;99.90
49829;DHT22;35723;51.194;5.112;2022-07-01T05:49:50;15.20;99.90
49829;DHT22;35723;51.194;5.112;2022-07-01T05:52:15;14.90;99.90
49829;DHT22;35723;51.194;5.112;2022-07-01T05:54:41;15.10;99.90
49829;DHT22;35723;51.194;5.112;2022-07-01T05:57:06;15.30;99.90
49829;DHT22;35723;51.194;5.112;2022-07-01T05:59:32;15.50;99.90
49829;DHT22;35723;51.194;5.112;2022-07-01T06:01:58;15.50;99.90
49829;DHT22;35723;51.194;5.112;2022-07-01T06:04:23;15.50;99.90
49829;DHT22;35723;51.194;5.112;2022-07-01T06:06:49;15.20;99.90
49829;DHT22;35723;51.194;5.112;2022-07-01T06:09:14;15.40;99.90
49829;DHT22;35723;51.194;5.112;2022-07-01T06:11:40;15.00;99.90
49829;DHT22;35723;51.194;5.112;2022-07-01T06:14:06;15.10;99.90
49829;DHT22;35723;51.194;5.112;2022-07-01T06:16:32;15.20;99.90
49829;DHT22;35723;51.194;5.112;2022-07-01T06:18:58;15.20;99.90
49829;DHT22;35723;51.194;5.112;2022-07-01T06:21:23;15.30;99.90
49829;DHT22;35723;51.194;5.112;2022-07-01T06:23:49;15.20;99.90
49829;DHT22;35723;51.194;5.112;2022-07-01T06:26:14;15.30;99.90
49829;DHT22;35723;51.194;5.112;2022-07-01T06:28:41;15.40;99.90
49829;DHT22;35723;51.194;5.112;2022-07-01T06:31:07;15.40;99.90
49829;DHT22;35723;51.194;5.112;2022-07-01T06:33:33;15.40;99.90
49829;DHT22;35723;51.194;5.112;2022-07-01T06:35:58;15.50;99.90
49829;DHT22;35723;51.194;5.112;2022-07-01T06:38:25;15.50;99.90
49829;DHT22;35723;51.194;5.112;2022-07-01T06:40:50;15.70;99.90
49829;DHT22;35723;51.194;5.112;2022-07-01T06:43:35;15.80;99.90
49829;DHT22;35723;51.194;5.112;2022-07-01T06:46:01;16.00;99.90
49829;DHT22;35723;51.194;5.112;2022-07-01T06:48:28;15.80;99.90
49829;DHT22;35723;51.194;5.112;2022-07-01T06:50:53;15.90;99.90
49829;DHT22;35723;51.194;5.112;2022-07-01T06:53:20;15.90;99.90
49829;DHT22;35723;51.194;5.112;2022-07-01T06:55:46;15.80;99.90
49829;DHT22;35723;51.194;5.112;2022-07-01T06:58:11;16.00;99.90
49829;DHT22;35723;51.194;5.112;2022-07-01T07:00:37;16.10;99.90
49829;DHT22;35723;51.194;5.112;2022-07-01T07:03:03;16.10;99.90
49829;DHT22;35723;51.194;5.112;2022-07-01T07:05:29;16.20;99.90
49829;DHT22;35723;51.194;5.112;2022-07-01T07:07:57;16.30;99.90
49829;DHT22;35723;51.194;5.112;2022-07-01T07:10:23;16.40;99.90
49829;DHT22;35723;51.194;5.112;2022-07-01T07:12:49;16.40;99.90
49829;DHT22;35723;51.194;5.112;2022-07-01T07:15:15;16.30;99.90
49829;DHT22;35723;51.194;5.112;2022-07-01T07:17:41;16.20;99.90
49829;DHT22;35723;51.194;5.112;2022-07-01T07:20:07;15.90;99.90
49829;DHT22;35723;51.194;5.112;2022-07-01T07:22:33;16.00;99.90
49829;DHT22;35723;51.194;5.112;2022-07-01T07:24:59;16.10;99.90
49829;DHT22;35723;51.194;5.112;2022-07-01T07:27:25;16.30;99.90
49829;DHT22;35723;51.194;5.112;2022-07-01T07:29:50;16.30;99.90
49829;DHT22;35723;51.194;5.112;2022-07-01T07:32:16;16.40;99.90
49829;DHT22;35723;51.194;5.112;2022-07-01T07:34:41;16.40;99.90
49829;DHT22;35723;51.194;5.112;2022-07-01T07:37:07;16.30;99.90
49829;DHT22;35723;51.194;5.112;2022-07-01T07:39:33;16.20;99.90
49829;DHT22;35723;51.194;5.112;2022-07-01T07:41:59;16.50;99.90
49829;DHT22;35723;51.194;5.112;2022-07-01T07:44:24;16.50;99.90
49829;DHT22;35723;51.194;5.112;2022-07-01T07:46:50;16.70;99.90
49829;DHT22;35723;51.194;5.112;2022-07-01T07:49:16;16.90;99.90
49829;DHT22;35723;51.194;5.112;2022-07-01T07:51:41;16.90;99.90
49829;DHT22;35723;51.194;5.112;2022-07-01T07:54:07;16.90;99.90
49829;DHT22;35723;51.194;5.112;2022-07-01T07:56:33;17.10;99.90
49829;DHT22;35723;51.194;5.112;2022-07-01T07:58:59;17.40;99.90
49829;DHT22;35723;51.194;5.112;2022-07-01T08:01:25;17.40;99.90
49829;DHT22;35723;51.194;5.112;2022-07-01T08:03:51;17.50;99.90
49829;DHT22;35723;51.194;5.112;2022-07-01T08:06:17;17.40;99.90
49829;DHT22;35723;51.194;5.112;2022-07-01T08:08:43;17.50;99.90
49829;DHT22;35723;51.194;5.112;2022-07-01T08:11:09;17.50;99.90
49829;DHT22;35723;51.194;5.112;2022-07-01T08:13:34;17.50;99.90
49829;DHT22;35723;51.194;5.112;2022-07-01T08:16:00;17.50;99.90
49829;DHT22;35723;51.194;5.112;2022-07-01T08:18:26;17.40;99.90
49829;DHT22;35723;51.194;5.112;2022-07-01T08:20:51;17.60;99.90
49829;DHT22;35723;51.194;5.112;2022-07-01T08:23:19;17.70;99.90
49829;DHT22;35723;51.194;5.112;2022-07-01T08:25:45;17.80;99.90
49829;DHT22;35723;51.194;5.112;2022-07-01T08:28:11;17.90;99.90
49829;DHT22;35723;51.194;5.112;2022-07-01T08:30:37;17.90;99.90
49829;DHT22;35723;51.194;5.112;2022-07-01T08:33:03;17.50;99.90
49829;DHT22;35723;51.194;5.112;2022-07-01T08:35:29;17.70;99.90
49829;DHT22;35723;51.194;5.112;2022-07-01T08:37:54;17.90;99.90
49829;DHT22;35723;51.194;5.112;2022-07-01T08:40:27;18.00;99.90
49829;DHT22;35723;51.194;5.112;2022-07-01T08:43:04;17.80;99.90
49829;DHT22;35723;51.194;5.112;2022-07-01T08:45:32;17.60;99.90
49829;DHT22;35723;51.194;5.112;2022-07-01T08:48:00;17.90;99.90
49829;DHT22;35723;51.194;5.112;2022-07-01T08:50:31;18.20;99.90
49829;DHT22;35723;51.194;5.112;2022-07-01T08:52:57;18.40;99.90
49829;DHT22;35723;51.194;5.112;2022-07-01T08:55:23;18.50;99.90
49829;DHT22;35723;51.194;5.112;2022-07-01T08:57:50;18.80;99.90
49829;DHT22;35723;51.194;5.112;2022-07-01T09:00:17;19.00;99.90
49829;DHT22;35723;51.194;5.112;2022-07-01T09:03:00;19.20;99.90
49829;DHT22;35723;51.194;5.112;2022-07-01T09:05:27;19.40;99.90
49829;DHT22;35723;51.194;5.112;2022-07-01T09:08:01;19.30;99.90
49829;DHT22;35723;51.194;5.112;2022-07-01T09:10:29;19.30;99.90
49829;DHT22;35723;51.194;5.112;2022-07-01T09:13:10;19.40;99.90
49829;DHT22;35723;51.194;5.112;2022-07-01T09:15:38;18.90;99.90
49829;DHT22;35723;51.194;5.112;2022-07-01T09:18:14;18.60;99.90
49829;DHT22;35723;51.194;5.112;2022-07-01T09:20:45;18.50;99.90
49829;DHT22;35723;51.194;5.112;2022-07-01T09:23:11;19.00;99.90
49829;DHT22;35723;51.194;5.112;2022-07-01T09:28:13;19.70;99.90
49829;DHT22;35723;51.194;5.112;2022-07-01T09:30:41;19.90;99.90
49829;DHT22;35723;51.194;5.112;2022-07-01T09:33:28;19.90;99.90
49829;DHT22;35723;51.194;5.112;2022-07-01T09:35:54;19.50;99.90
49829;DHT22;35723;51.194;5.112;2022-07-01T09:38:23;19.60;99.90
49829;DHT22;35723;51.194;5.112;2022-07-01T09:43:30;19.70;99.90
49829;DHT22;35723;51.194;5.112;2022-07-01T09:45:57;19.70;99.90
49829;DHT22;35723;51.194;5.112;2022-07-01T09:48:28;19.80;99.90
49829;DHT22;35723;51.194;5.112;2022-07-01T09:51:08;20.00;99.90
49829;DHT22;35723;51.194;5.112;2022-07-01T09:53:33;20.40;99.90
49829;DHT22;35723;51.194;5.112;2022-07-01T09:55:59;20.60;99.90
49829;DHT22;35723;51.194;5.112;2022-07-01T09:58:26;20.60;99.90
49829;DHT22;35723;51.194;5.112;2022-07-01T10:00:55;20.70;99.90
49829;DHT22;35723;51.194;5.112;2022-07-01T10:03:21;20.70;99.90
49829;DHT22;35723;51.194;5.112;2022-07-01T10:05:54;20.80;99.90
49829;DHT22;35723;51.194;5.112;2022-07-01T10:14:08;20.00;99.90
49829;DHT22;35723;51.194;5.112;2022-07-01T10:16:35;20.30;99.90
49829;DHT22;35723;51.194;5.112;2022-07-01T10:19:27;20.10;99.90
49829;DHT22;35723;51.194;5.112;2022-07-01T10:21:55;19.60;99.90
49829;DHT22;35723;51.194;5.112;2022-07-01T10:24:24;20.00;99.90
49829;DHT22;35723;51.194;5.112;2022-07-01T10:26:51;20.30;99.90
49829;DHT22;35723;51.194;5.112;2022-07-01T10:29:38;20.20;99.90
49829;DHT22;35723;51.194;5.112;2022-07-01T10:32:26;20.40;99.90
49829;DHT22;35723;51.194;5.112;2022-07-01T10:35:06;20.50;99.90
49829;DHT22;35723;51.194;5.112;2022-07-01T10:37:32;20.40;99.90
49829;DHT22;35723;51.194;5.112;2022-07-01T10:39:59;20.60;99.90
49829;DHT22;35723;51.194;5.112;2022-07-01T10:42:34;20.50;99.90
49829;DHT22;35723;51.194;5.112;2022-07-01T10:45:19;20.30;99.90
49829;DHT22;35723;51.194;5.112;2022-07-01T10:47:44;20.10;99.90
49829;DHT22;35723;51.194;5.112;2022-07-01T10:50:12;20.10;99.90
49829;DHT22;35723;51.194;5.112;2022-07-01T10:52:40;20.20;99.90
49829;DHT22;35723;51.194;5.112;2022-07-01T10:55:39;20.30;99.90
49829;DHT22;35723;51.194;5.112;2022-07-01T10:58:05;20.20;99.90
49829;DHT22;35723;51.194;5.112;2022-07-01T11:00:33;20.30;99.90
49829;DHT22;35723;51.194;5.112;2022-07-01T11:03:08;20.20;99.90
49829;DHT22;35723;51.194;5.112;2022-07-01T11:05:35;19.90;99.90
49829;DHT22;35723;51.194;5.112;2022-07-01T11:08:01;20.10;99.90
49829;DHT22;35723;51.194;5.112;2022-07-01T11:10:27;20.20;99.90
49829;DHT22;35723;51.194;5.112;2022-07-01T11:12:53;20.20;99.90
49829;DHT22;35723;51.194;5.112;2022-07-01T11:15:18;20.30;99.90
49829;DHT22;35723;51.194;5.112;2022-07-01T11:17:48;20.30;99.90
49829;DHT22;35723;51.194;5.112;2022-07-01T11:20:14;20.30;99.90
49829;DHT22;35723;51.194;5.112;2022-07-01T11:22:40;20.20;99.90
49829;DHT22;35723;51.194;5.112;2022-07-01T11:25:08;20.20;99.90
49829;DHT22;35723;51.194;5.112;2022-07-01T11:27:34;20.30;99.90
49829;DHT22;35723;51.194;5.112;2022-07-01T11:30:10;20.60;99.90
49829;DHT22;35723;51.194;5.112;2022-07-01T11:32:42;20.60;99.90
49829;DHT22;35723;51.194;5.112;2022-07-01T11:35:13;20.80;99.90
49829;DHT22;35723;51.194;5.112;2022-07-01T11:38:12;20.80;99.90
49829;DHT22;35723;51.194;5.112;2022-07-01T11:40:58;20.70;99.90
49829;DHT22;35723;51.194;5.112;2022-07-01T11:43:26;20.80;99.90
49829;DHT22;35723;51.194;5.112;2022-07-01T11:45:53;21.00;99.90
49829;DHT22;35723;51.194;5.112;2022-07-01T11:48:49;21.10;99.90
49829;DHT22;35723;51.194;5.112;2022-07-01T11:51:22;21.10;99.90
49829;DHT22;35723;51.194;5.112;2022-07-01T11:53:53;21.10;99.90
49829;DHT22;35723;51.194;5.112;2022-07-01T11:56:35;21.20;99.90
49829;DHT22;35723;51.194;5.112;2022-07-01T11:59:04;21.30;99.90
49829;DHT22;35723;51.194;5.112;2022-07-01T12:01:32;21.60;99.90
49829;DHT22;35723;51.194;5.112;2022-07-01T12:04:06;21.40;99.90
49829;DHT22;35723;51.194;5.112;2022-07-01T12:06:33;21.30;99.90
49829;DHT22;35723;51.194;5.112;2022-07-01T12:09:00;21.00;99.90
49829;DHT22;35723;51.194;5.112;2022-07-01T12:11:27;21.10;99.90
49829;DHT22;35723;51.194;5.112;2022-07-01T12:13:54;21.30;99.90
49829;DHT22;35723;51.194;5.112;2022-07-01T12:16:22;21.30;99.90
49829;DHT22;35723;51.194;5.112;2022-07-01T12:18:56;21.40;99.90
49829;DHT22;35723;51.194;5.112;2022-07-01T12:21:23;21.50;99.90
49829;DHT22;35723;51.194;5.112;2022-07-01T12:26:33;21.60;99.90
49829;DHT22;35723;51.194;5.112;2022-07-01T12:28:58;21.80;99.90
49829;DHT22;35723;51.194;5.112;2022-07-01T12:31:24;22.10;99.90
49829;DHT22;35723;51.194;5.112;2022-07-01T12:33:51;22.20;99.90
49829;DHT22;35723;51.194;5.112;2022-07-01T12:36:17;22.30;99.20
49829;DHT22;35723;51.194;5.112;2022-07-01T12:38:43;22.40;99.90
49829;DHT22;35723;51.194;5.112;2022-07-01T12:41:32;22.40;99.90
49829;DHT22;35723;51.194;5.112;2022-07-01T12:46:43;22.50;98.80
49829;DHT22;35723;51.194;5.112;2022-07-01T12:49:18;22.40;99.20
49829;DHT22;35723;51.194;5.112;2022-07-01T12:51:45;22.40;98.60
49829;DHT22;35723;51.194;5.112;2022-07-01T12:54:31;22.30;99.30
49829;DHT22;35723;51.194;5.112;2022-07-01T12:56:58;22.50;97.90
49829;DHT22;35723;51.194;5.112;2022-07-01T12:59:24;22.60;97.80
49829;DHT22;35723;51.194;5.112;2022-07-01T13:01:49;22.60;98.80
49829;DHT22;35723;51.194;5.112;2022-07-01T13:04:26;22.90;99.90
49829;DHT22;35723;51.194;5.112;2022-07-01T13:06:52;22.90;99.40
49829;DHT22;35723;51.194;5.112;2022-07-01T13:09:17;22.90;99.40
49829;DHT22;35723;51.194;5.112;2022-07-01T13:11:43;22.90;99.50
49829;DHT22;35723;51.194;5.112;2022-07-01T13:14:09;23.00;99.90
49829;DHT22;35723;51.194;5.112;2022-07-01T13:16:34;23.00;99.50
49829;DHT22;35723;51.194;5.112;2022-07-01T13:19:00;23.00;99.90
49829;DHT22;35723;51.194;5.112;2022-07-01T13:21:26;22.90;98.90
49829;DHT22;35723;51.194;5.112;2022-07-01T13:23:51;22.80;99.80
49829;DHT22;35723;51.194;5.112;2022-07-01T13:26:17;22.90;98.80
49829;DHT22;35723;51.194;5.112;2022-07-01T13:28:43;22.80;96.60
49829;DHT22;35723;51.194;5.112;2022-07-01T13:31:08;22.70;97.30
49829;DHT22;35723;51.194;5.112;2022-07-01T13:33:34;22.70;96.90
49829;DHT22;35723;51.194;5.112;2022-07-01T13:36:00;22.80;96.60
49829;DHT22;35723;51.194;5.112;2022-07-01T13:38:25;22.80;95.50
49829;DHT22;35723;51.194;5.112;2022-07-01T13:40:51;22.70;95.90
49829;DHT22;35723;51.194;5.112;2022-07-01T13:43:16;22.60;96.40
49829;DHT22;35723;51.194;5.112;2022-07-01T13:45:43;22.50;96.10
49829;DHT22;35723;51.194;5.112;2022-07-01T13:48:09;22.70;97.00
49829;DHT22;35723;51.194;5.112;2022-07-01T13:50:35;22.70;96.50
49829;DHT22;35723;51.194;5.112;2022-07-01T13:53:00;23.00;95.40
49829;DHT22;35723;51.194;5.112;2022-07-01T13:55:26;23.10;97.00
49829;DHT22;35723;51.194;5.112;2022-07-01T13:57:51;23.10;95.00
49829;DHT22;35723;51.194;5.112;2022-07-01T14:00:17;22.90;95.50
49829;DHT22;35723;51.194;5.112;2022-07-01T14:02:44;23.00;96.30
49829;DHT22;35723;51.194;5.112;2022-07-01T14:05:10;22.70;95.80
49829;DHT22;35723;51.194;5.112;2022-07-01T14:07:36;22.70;95.20
49829;DHT22;35723;51.194;5.112;2022-07-01T14:10:03;22.50;94.20
49829;DHT22;35723;51.194;5.112;2022-07-01T14:12:28;22.50;94.70
49829;DHT22;35723;51.194;5.112;2022-07-01T14:14:58;22.50;94.60
49829;DHT22;35723;51.194;5.112;2022-07-01T14:17:25;22.20;94.80
49829;DHT22;35723;51.194;5.112;2022-07-01T14:19:51;22.30;95.20
49829;DHT22;35723;51.194;5.112;2022-07-01T14:22:17;22.20;94.80
49829;DHT22;35723;51.194;5.112;2022-07-01T14:24:42;22.30;94.50
49829;DHT22;35723;51.194;5.112;2022-07-01T14:27:08;22.30;94.00
49829;DHT22;35723;51.194;5.112;2022-07-01T14:29:33;21.90;94.20
49829;DHT22;35723;51.194;5.112;2022-07-01T14:31:59;22.00;94.60
49829;DHT22;35723;51.194;5.112;2022-07-01T14:34:25;22.00;95.00
49829;DHT22;35723;51.194;5.112;2022-07-01T14:36:51;22.10;95.10
49829;DHT22;35723;51.194;5.112;2022-07-01T14:39:17;21.60;94.80
49829;DHT22;35723;51.194;5.112;2022-07-01T14:41:42;21.20;96.20
49829;DHT22;35723;51.194;5.112;2022-07-01T14:44:08;21.20;95.90
49829;DHT22;35723;51.194;5.112;2022-07-01T14:46:34;20.90;97.60
49829;DHT22;35723;51.194;5.112;2022-07-01T14:48:59;20.80;99.10
49829;DHT22;35723;51.194;5.112;2022-07-01T14:51:25;20.40;99.90
49829;DHT22;35723;51.194;5.112;2022-07-01T14:53:51;20.40;99.90
49829;DHT22;35723;51.194;5.112;2022-07-01T14:56:16;20.40;99.90
49829;DHT22;35723;51.194;5.112;2022-07-01T14:58:42;20.20;99.90
49829;DHT22;35723;51.194;5.112;2022-07-01T15:01:11;19.90;99.90
49829;DHT22;35723;51.194;5.112;2022-07-01T15:03:37;19.90;99.90
49829;DHT22;35723;51.194;5.112;2022-07-01T15:06:03;19.90;99.90
49829;DHT22;35723;51.194;5.112;2022-07-01T15:08:28;20.00;99.90
49829;DHT22;35723;51.194;5.112;2022-07-01T15:10:54;20.10;99.90
49829;DHT22;35723;51.194;5.112;2022-07-01T15:13:31;20.00;99.90
49829;DHT22;35723;51.194;5.112;2022-07-01T15:16:01;19.70;99.90
49829;DHT22;35723;51.194;5.112;2022-07-01T15:18:27;19.60;99.90
49829;DHT22;35723;51.194;5.112;2022-07-01T15:20:53;19.80;99.90
49829;DHT22;35723;51.194;5.112;2022-07-01T15:23:18;19.70;99.90
49829;DHT22;35723;51.194;5.112;2022-07-01T15:25:44;19.50;99.90
49829;DHT22;35723;51.194;5.112;2022-07-01T15:28:10;19.80;99.90
49829;DHT22;35723;51.194;5.112;2022-07-01T15:30:35;19.50;99.90
49829;DHT22;35723;51.194;5.112;2022-07-01T15:33:01;19.20;99.90
49829;DHT22;35723;51.194;5.112;2022-07-01T15:35:27;19.20;99.90
49829;DHT22;35723;51.194;5.112;2022-07-01T15:37:52;19.30;99.90
49829;DHT22;35723;51.194;5.112;2022-07-01T15:40:18;19.50;99.90
49829;DHT22;35723;51.194;5.112;2022-07-01T15:42:44;19.50;99.90
49829;DHT22;35723;51.194;5.112;2022-07-01T15:45:10;19.30;99.90
49829;DHT22;35723;51.194;5.112;2022-07-01T15:47:35;19.50;99.90
49829;DHT22;35723;51.194;5.112;2022-07-01T15:50:19;19.50;99.90
49829;DHT22;35723;51.194;5.112;2022-07-01T15:52:46;19.50;99.90